Time;durP1;ratioP1;P1;durP2;ratioP2;P2;SDS_P1;SDS_P2;PMS_P1;PMS_P2;Temp;Humidity;BMP_temperature;BMP_pressure;BME280_temperature;BME280_humidity;BME280_pressure;Samples;Min_cycle;Max_cycle;Signal;HPM_P1;HPM_P2
2021/11/01 00:00:34;;;;;;;7.90;2.80;;;17.10;90.90;;;;;;4225939;27;20039;-61
2021/11/01 00:02:57;;;;;;;10.80;3.08;;;17.10;90.90;;;;;;4228400;27;20477;-60
2021/11/01 00:05:20;;;;;;;10.38;2.75;;;17.10;91.00;;;;;;4228183;27;20049;-61
2021/11/01 00:07:43;;;;;;;5.10;2.08;;;17.10;91.00;;;;;;4210973;28;20145;-60
2021/11/01 00:10:10;;;;;;;9.27;2.60;;;17.10;91.10;;;;;;4210833;28;20641;-61
2021/11/01 00:12:33;;;;;;;7.38;2.00;;;17.10;91.10;;;;;;4210581;28;20052;-61
2021/11/01 00:14:55;;;;;;;9.05;2.30;;;17.10;91.20;;;;;;4224425;27;20100;-61
2021/11/01 00:17:16;;;;;;;9.57;3.00;;;17.10;91.10;;;;;;4227671;27;20047;-61
2021/11/01 00:19:38;;;;;;;9.60;2.47;;;17.10;91.10;;;;;;4210974;28;20052;-61
2021/11/01 00:22:01;;;;;;;10.98;3.08;;;17.10;91.20;;;;;;4193976;28;20415;-61
2021/11/01 00:24:23;;;;;;;9.95;2.92;;;17.10;91.10;;;;;;4193944;28;20521;-61
2021/11/01 00:26:46;;;;;;;8.18;2.45;;;17.00;90.90;;;;;;4194175;28;20558;-61
2021/11/01 00:29:09;;;;;;;9.75;2.38;;;17.10;91.00;;;;;;4199252;28;20134;-60
2021/11/01 00:31:31;;;;;;;9.57;2.10;;;17.10;91.30;;;;;;4210939;28;20062;-61
2021/11/01 00:33:54;;;;;;;11.52;3.22;;;17.10;91.40;;;;;;4210816;28;20058;-61
2021/11/01 00:36:16;;;;;;;8.10;2.40;;;17.00;90.60;;;;;;4210566;28;20751;-61
2021/11/01 00:38:38;;;;;;;6.53;3.10;;;17.00;90.70;;;;;;4210412;28;20067;-60
2021/11/01 00:41:00;;;;;;;6.60;2.05;;;17.00;90.60;;;;;;4210748;28;20418;-60
2021/11/01 00:43:24;;;;;;;8.13;1.95;;;17.00;90.40;;;;;;4227350;27;20486;-61
2021/11/01 00:45:46;;;;;;;10.70;2.10;;;17.00;90.60;;;;;;4227350;27;20051;-60
2021/11/01 00:48:08;;;;;;;10.88;3.05;;;17.00;90.40;;;;;;4226721;27;20051;-60
2021/11/01 00:50:31;;;;;;;8.10;2.55;;;17.00;90.50;;;;;;4210331;28;20063;-61
2021/11/01 00:52:54;;;;;;;8.65;1.98;;;17.00;90.50;;;;;;4210205;28;20575;-61
2021/11/01 00:55:22;;;;;;;7.72;2.97;;;17.00;90.50;;;;;;4210092;28;20059;-61
2021/11/01 00:57:44;;;;;;;11.52;2.75;;;17.00;90.50;;;;;;4209858;28;20051;-61
2021/11/01 01:00:09;;;;;;;11.82;2.78;;;16.90;90.70;;;;;;4204846;27;20134;-61
2021/11/01 01:02:33;;;;;;;4.53;2.03;;;16.90;90.50;;;;;;4210062;28;20798;-60
2021/11/01 01:04:56;;;;;;;15.05;3.22;;;16.90;90.50;;;;;;4209896;28;20502;-60
2021/11/01 01:07:20;;;;;;;7.72;2.50;;;16.90;90.60;;;;;;4226393;27;20048;-61
2021/11/01 01:09:42;;;;;;;13.07;2.88;;;16.90;90.70;;;;;;4226998;27;20081;-61
2021/11/01 01:12:07;;;;;;;11.05;2.13;;;16.90;90.70;;;;;;4225327;27;20071;-61
2021/11/01 01:14:31;;;;;;;5.55;2.78;;;16.90;90.60;;;;;;4226945;27;20051;-61
2021/11/01 01:16:56;;;;;;;7.30;3.28;;;16.90;90.30;;;;;;4227021;27;20104;-61
2021/11/01 01:19:22;;;;;;;9.35;3.05;;;16.90;90.50;;;;;;4226707;27;20100;-61
2021/11/01 01:24:24;;;;;;;8.38;1.92;;;16.90;90.40;;;;;;4226275;28;20047;-61
2021/11/01 01:26:45;;;;;;;6.88;2.38;;;16.80;90.40;;;;;;4226663;27;20413;-61
2021/11/01 01:29:11;;;;;;;9.60;2.33;;;16.80;90.50;;;;;;4226213;27;20456;-61
2021/11/01 01:31:34;;;;;;;7.90;2.83;;;16.80;90.30;;;;;;4226735;27;20051;-61
2021/11/01 01:33:58;;;;;;;7.68;2.22;;;16.80;90.20;;;;;;4226659;27;20126;-61
2021/11/01 01:36:21;;;;;;;9.75;2.88;;;16.80;90.20;;;;;;4226631;27;20075;-61
2021/11/01 01:38:43;;;;;;;6.15;2.17;;;16.80;90.50;;;;;;4226372;27;20512;-61
2021/11/01 01:41:12;;;;;;;5.80;1.88;;;16.80;90.60;;;;;;4226509;27;20051;-61
2021/11/01 01:43:35;;;;;;;6.47;2.38;;;16.80;90.50;;;;;;4226155;27;20075;-61
2021/11/01 01:45:57;;;;;;;6.78;2.38;;;16.80;90.30;;;;;;4226372;28;20051;-62
2021/11/01 01:48:19;;;;;;;8.30;2.42;;;16.80;90.30;;;;;;4226261;27;20047;-61
2021/11/01 01:50:44;;;;;;;7.10;2.45;;;16.80;90.60;;;;;;4226160;28;20051;-61
2021/11/01 01:53:06;;;;;;;13.85;2.45;;;16.80;91.10;;;;;;4226126;28;20051;-61
2021/11/01 01:55:30;;;;;;;8.05;2.67;;;16.80;90.80;;;;;;4226188;27;20491;-61
2021/11/01 01:57:53;;;;;;;5.10;1.65;;;16.80;90.40;;;;;;4225729;27;20048;-61
2021/11/01 02:00:26;;;;;;;13.55;3.33;;;16.70;90.70;;;;;;4225838;27;20062;-61
2021/11/01 02:02:49;;;;;;;7.93;2.05;;;16.70;90.10;;;;;;4226003;27;20054;-62
2021/11/01 02:05:11;;;;;;;8.88;2.28;;;16.70;90.40;;;;;;4225937;27;20151;-62
2021/11/01 02:07:39;;;;;;;5.38;2.17;;;16.70;90.50;;;;;;4226235;27;20447;-61
2021/11/01 02:10:05;;;;;;;7.68;2.42;;;16.70;90.30;;;;;;4225511;27;20489;-61
2021/11/01 02:12:34;;;;;;;8.35;2.33;;;16.70;90.20;;;;;;4225829;27;20412;-61
2021/11/01 02:15:00;;;;;;;10.93;2.80;;;16.70;90.10;;;;;;4226355;27;20138;-61
2021/11/01 02:17:25;;;;;;;9.95;2.03;;;16.70;90.00;;;;;;4225070;27;20048;-61
2021/11/01 02:19:50;;;;;;;7.78;2.92;;;16.70;90.60;;;;;;4208982;28;20138;-61
2021/11/01 02:22:15;;;;;;;7.40;1.95;;;16.70;90.20;;;;;;4225048;28;20039;-61
2021/11/01 02:24:47;;;;;;;6.05;2.00;;;16.70;90.50;;;;;;4225731;27;20051;-61
2021/11/01 02:27:12;;;;;;;7.97;2.33;;;16.70;90.10;;;;;;4225359;28;20040;-62
2021/11/01 02:29:35;;;;;;;3.97;2.05;;;16.70;90.40;;;;;;4225472;27;20044;-61
2021/11/01 02:31:57;;;;;;;7.90;2.03;;;16.70;90.30;;;;;;4225518;27;20124;-61
2021/11/01 02:34:21;;;;;;;6.03;2.03;;;16.60;90.00;;;;;;4225602;27;20046;-61
2021/11/01 02:36:45;;;;;;;6.75;2.30;;;16.60;90.40;;;;;;4225310;27;20051;-61
2021/11/01 02:39:07;;;;;;;8.40;3.30;;;16.60;90.10;;;;;;4225286;27;20116;-61
2021/11/01 02:41:33;;;;;;;10.65;1.95;;;16.60;90.30;;;;;;4225337;27;20048;-61
2021/11/01 02:43:57;;;;;;;9.32;1.90;;;16.60;89.30;;;;;;4224895;27;20058;-61
2021/11/01 02:46:20;;;;;;;10.30;2.58;;;16.60;90.00;;;;;;4208133;28;20040;-61
2021/11/01 02:48:46;;;;;;;8.93;2.70;;;16.60;90.30;;;;;;4208615;28;20506;-60
2021/11/01 02:51:08;;;;;;;9.50;2.25;;;16.60;90.20;;;;;;4214805;28;20126;-61
2021/11/01 02:53:30;;;;;;;7.32;2.03;;;16.60;89.80;;;;;;4225199;28;20035;-61
2021/11/01 02:55:53;;;;;;;8.50;2.08;;;16.60;90.00;;;;;;4223904;28;20545;-61
2021/11/01 02:58:14;;;;;;;6.57;1.98;;;16.60;90.40;;;;;;4225269;27;20080;-61
2021/11/01 03:00:38;;;;;;;8.23;1.90;;;16.50;90.70;;;;;;4224820;27;20432;-61
2021/11/01 03:03:00;;;;;;;6.85;2.08;;;16.60;90.50;;;;;;4224422;27;20043;-61
2021/11/01 03:05:25;;;;;;;8.02;3.00;;;16.60;90.50;;;;;;4225367;27;20079;-61
2021/11/01 03:07:49;;;;;;;9.05;2.85;;;16.50;90.20;;;;;;4225049;28;20056;-61
2021/11/01 03:10:12;;;;;;;7.38;2.08;;;16.50;90.60;;;;;;4224627;28;20618;-61
2021/11/01 03:12:35;;;;;;;11.82;2.28;;;16.50;90.00;;;;;;4225106;28;20142;-61
2021/11/01 03:15:03;;;;;;;6.15;1.63;;;16.50;90.20;;;;;;4224814;27;20051;-61
2021/11/01 03:17:28;;;;;;;8.27;2.00;;;16.50;90.50;;;;;;4207413;28;20059;-61
2021/11/01 03:19:56;;;;;;;8.70;2.25;;;16.50;90.30;;;;;;4207314;28;20051;-61
2021/11/01 03:22:19;;;;;;;4.90;1.75;;;16.50;90.10;;;;;;4206607;28;20047;-62
2021/11/01 03:24:48;;;;;;;6.18;2.08;;;16.50;90.20;;;;;;4207821;28;20444;-61
2021/11/01 03:27:16;;;;;;;6.13;1.95;;;16.50;90.10;;;;;;4216115;27;20048;-61
2021/11/01 03:29:42;;;;;;;4.00;1.75;;;16.40;90.00;;;;;;4224369;27;20421;-61
2021/11/01 03:32:07;;;;;;;5.20;2.00;;;16.50;90.30;;;;;;4224373;27;20128;-61
2021/11/01 03:34:32;;;;;;;5.72;1.50;;;16.50;90.00;;;;;;4224279;27;20110;-60
2021/11/01 03:36:54;;;;;;;6.22;2.03;;;16.50;90.00;;;;;;4225029;27;20067;-61
2021/11/01 03:39:17;;;;;;;7.75;1.73;;;16.50;90.10;;;;;;4224538;27;20409;-61
2021/11/01 03:41:40;;;;;;;6.45;2.05;;;16.50;90.10;;;;;;4224821;28;20039;-61
2021/11/01 03:44:06;;;;;;;6.13;2.10;;;16.40;90.10;;;;;;4224962;28;20058;-61
2021/11/01 03:46:35;;;;;;;10.98;2.22;;;16.40;89.80;;;;;;4224851;28;20108;-61
2021/11/01 03:48:58;;;;;;;10.05;2.28;;;16.40;90.30;;;;;;4224399;28;20043;-61
2021/11/01 03:51:38;;;;;;;6.90;2.40;;;16.40;89.90;;;;;;4224308;28;20085;-61
2021/11/01 03:54:01;;;;;;;4.60;1.90;;;16.40;89.40;;;;;;4224614;28;20121;-61
2021/11/01 03:56:23;;;;;;;8.63;2.45;;;16.40;90.00;;;;;;4222806;28;20574;-62
2021/11/01 03:58:45;;;;;;;5.05;2.15;;;16.40;89.50;;;;;;4223406;28;20044;-61
2021/11/01 04:01:08;;;;;;;8.23;2.15;;;16.40;90.00;;;;;;4224422;28;20052;-61
2021/11/01 04:03:30;;;;;;;6.57;1.98;;;16.40;90.20;;;;;;4224270;27;20052;-61
2021/11/01 04:05:56;;;;;;;7.57;2.17;;;16.40;90.10;;;;;;4224441;27;20067;-61
2021/11/01 04:08:19;;;;;;;6.70;2.03;;;16.40;90.00;;;;;;4224658;27;20060;-61
2021/11/01 04:10:41;;;;;;;5.47;1.95;;;16.40;90.20;;;;;;4208282;28;20056;-62
2021/11/01 04:13:04;;;;;;;6.65;2.30;;;16.40;90.00;;;;;;4207618;28;20136;-61
2021/11/01 04:15:26;;;;;;;8.98;1.90;;;16.40;89.90;;;;;;4207651;28;20063;-61
2021/11/01 04:17:52;;;;;;;6.13;2.15;;;16.40;90.10;;;;;;4205742;28;20058;-61
2021/11/01 04:20:48;;;;;;;4.60;1.70;;;16.40;89.80;;;;;;4207730;28;20051;-61
2021/11/01 04:23:11;;;;;;;5.80;1.73;;;16.40;89.40;;;;;;4207486;28;20487;-61
2021/11/01 04:25:35;;;;;;;4.82;1.33;;;16.30;90.20;;;;;;4207482;28;20105;-61
2021/11/01 04:27:58;;;;;;;4.20;1.50;;;16.30;90.30;;;;;;4207101;27;20048;-61
2021/11/01 04:30:21;;;;;;;5.10;2.00;;;16.30;90.20;;;;;;4207408;27;20418;-61
2021/11/01 04:32:44;;;;;;;6.82;1.98;;;16.30;90.00;;;;;;4207624;27;20119;-61
2021/11/01 04:35:11;;;;;;;8.18;1.85;;;16.30;90.10;;;;;;4207661;27;20491;-61
2021/11/01 04:37:34;;;;;;;10.85;2.25;;;16.30;88.80;;;;;;4207407;27;20474;-61
2021/11/01 04:40:24;;;;;;;4.00;1.67;;;16.30;90.10;;;;;;4207243;27;20047;-61
2021/11/01 04:43:05;;;;;;;3.60;1.92;;;16.30;90.20;;;;;;4207090;27;20055;-61
2021/11/01 04:53:24;;;;;;;2.95;1.17;;;16.20;89.90;;;;;;4209685;27;20777;-62
2021/11/01 04:55:47;;;;;;;4.03;1.52;;;16.20;89.90;;;;;;4210033;27;20051;-61
2021/11/01 04:58:10;;;;;;;4.75;1.73;;;16.20;90.10;;;;;;4210895;28;20048;-61
2021/11/01 05:00:33;;;;;;;7.55;2.03;;;16.20;90.10;;;;;;4209963;28;20109;-61
2021/11/01 05:03:02;;;;;;;4.60;1.40;;;16.20;90.10;;;;;;4210441;28;20044;-61
2021/11/01 05:05:24;;;;;;;5.38;2.10;;;16.20;90.10;;;;;;4209923;27;20052;-60
2021/11/01 05:07:46;;;;;;;5.10;1.83;;;16.20;90.10;;;;;;4209945;28;20135;-60
2021/11/01 05:10:13;;;;;;;5.05;1.30;;;16.20;89.80;;;;;;4210152;28;20139;-61
2021/11/01 05:12:37;;;;;;;5.45;1.65;;;16.20;89.90;;;;;;4210096;28;20109;-60
2021/11/01 05:15:07;;;;;;;6.90;1.90;;;16.20;90.20;;;;;;4210180;28;20063;-61
2021/11/01 05:17:38;;;;;;;6.22;1.70;;;16.20;90.20;;;;;;4209726;28;20086;-61
2021/11/01 05:20:06;;;;;;;5.68;1.83;;;16.20;90.40;;;;;;4209686;28;20542;-61
2021/11/01 05:22:30;;;;;;;6.28;1.90;;;16.20;90.40;;;;;;4217820;27;20047;-61
2021/11/01 05:24:56;;;;;;;2.90;1.25;;;16.10;90.50;;;;;;4226501;27;20058;-61
2021/11/01 05:30:03;;;;;;;3.15;1.48;;;16.10;90.60;;;;;;4210624;27;20142;-61
2021/11/01 05:32:28;;;;;;;2.72;1.40;;;16.20;90.40;;;;;;4226494;27;20092;-61
2021/11/01 05:34:51;;;;;;;5.95;1.48;;;16.10;91.00;;;;;;4226926;27;20131;-61
2021/11/01 05:37:13;;;;;;;3.80;1.30;;;16.10;90.60;;;;;;4226524;27;20051;-61
2021/11/01 05:39:37;;;;;;;4.78;1.63;;;16.10;90.90;;;;;;4227092;27;20112;-61
2021/11/01 05:41:59;;;;;;;5.10;1.58;;;16.10;90.40;;;;;;4194112;28;20050;-61
2021/11/01 05:44:21;;;;;;;2.50;1.42;;;16.10;90.50;;;;;;4209287;28;20052;-61
2021/11/01 05:46:48;;;;;;;4.80;1.58;;;16.10;90.60;;;;;;4221565;28;20043;-61
2021/11/01 05:49:11;;;;;;;4.60;1.70;;;16.10;90.50;;;;;;4226116;27;20093;-61
2021/11/01 05:51:35;;;;;;;2.78;1.38;;;16.10;90.50;;;;;;4225814;27;20050;-61
2021/11/01 05:54:00;;;;;;;3.90;1.75;;;16.10;90.30;;;;;;4225773;27;20087;-61
2021/11/01 05:56:31;;;;;;;4.22;1.48;;;16.10;90.50;;;;;;4226253;27;20409;-60
2021/11/01 05:59:04;;;;;;;6.47;1.48;;;16.10;90.70;;;;;;4225755;28;20047;-61
2021/11/01 06:01:53;;;;;;;4.88;1.40;;;16.10;90.50;;;;;;4225721;27;20417;-61
2021/11/01 06:04:20;;;;;;;5.03;1.83;;;16.10;90.60;;;;;;4225877;28;20047;-61
2021/11/01 06:06:56;;;;;;;7.20;1.80;;;16.00;90.80;;;;;;4225732;27;20146;-61
2021/11/01 06:09:32;;;;;;;6.47;1.65;;;16.10;90.70;;;;;;4225659;27;20055;-61
2021/11/01 06:14:33;;;;;;;4.68;1.55;;;16.00;90.60;;;;;;4209000;28;20477;-60
2021/11/01 06:16:56;;;;;;;4.13;1.35;;;16.00;90.70;;;;;;4222667;27;20040;-61
2021/11/01 06:19:20;;;;;;;6.43;2.33;;;16.00;90.80;;;;;;4225862;27;20120;-61
2021/11/01 06:21:44;;;;;;;5.10;1.50;;;16.00;90.80;;;;;;4209209;28;20168;-61
2021/11/01 06:24:19;;;;;;;8.40;1.90;;;16.00;90.70;;;;;;4209253;28;20133;-61
2021/11/01 06:26:42;;;;;;;2.85;1.58;;;16.00;90.80;;;;;;4208367;28;20054;-62
2021/11/01 06:29:07;;;;;;;2.95;1.25;;;16.00;90.90;;;;;;4208885;28;20048;-61
2021/11/01 06:31:30;;;;;;;7.57;1.65;;;16.00;90.50;;;;;;4225467;28;20109;-61
2021/11/01 06:34:03;;;;;;;3.33;1.17;;;16.00;90.60;;;;;;4225523;27;20059;-61
2021/11/01 06:42:04;;;;;;;3.83;1.10;;;16.00;91.20;;;;;;4182403;27;20085;-61
2021/11/01 06:44:57;;;;;;;5.93;1.90;;;16.00;91.40;;;;;;4225101;28;20078;-60
2021/11/01 06:50:04;;;;;;;2.95;1.40;;;16.00;91.80;;;;;;4208178;28;20119;-60
2021/11/01 07:16:33;;;;;;;5.05;1.73;;;15.90;90.20;;;;;;4207945;28;20098;-61
2021/11/01 07:19:00;;;;;;;4.80;1.27;;;15.90;90.20;;;;;;4208047;27;20054;-61
2021/11/01 08:22:51;;;;;;;4.32;1.25;;;15.60;88.20;;;;;;4232721;27;20501;-60
2021/11/01 08:28:19;;;;;;;3.97;1.63;;;15.60;88.00;;;;;;4243932;27;20447;-61
2021/11/01 08:39:10;;;;;;;5.22;1.83;;;15.60;87.60;;;;;;4211579;27;20509;-60
2021/11/01 08:42:01;;;;;;;3.47;1.85;;;15.60;87.50;;;;;;4217581;27;20102;-61
2021/11/01 08:44:46;;;;;;;5.15;1.30;;;15.60;87.50;;;;;;4211270;27;20047;-62
2021/11/01 09:03:35;;;;;;;2.10;1.20;;;15.50;86.60;;;;;;4226344;27;20052;-60
2021/11/01 09:06:06;;;;;;;4.03;1.10;;;15.50;86.70;;;;;;4226222;27;20454;-60
2021/11/01 09:24:40;;;;;;;3.72;1.00;;;15.50;86.10;;;;;;4207628;27;20147;-62
2021/11/01 09:27:06;;;;;;;4.45;1.35;;;15.50;86.00;;;;;;4210711;27;20048;-61
2021/11/01 09:29:42;;;;;;;3.92;1.02;;;15.50;86.00;;;;;;4209315;28;20052;-61
2021/11/01 09:37:53;;;;;;;3.10;1.00;;;15.50;85.70;;;;;;4209348;28;20059;-60
2021/11/01 09:42:56;;;;;;;5.53;1.35;;;15.50;85.60;;;;;;4226379;27;20051;-60
2021/11/01 09:45:18;;;;;;;6.20;1.92;;;15.50;85.70;;;;;;4225873;27;20044;-59
2021/11/01 09:47:44;;;;;;;5.43;1.85;;;15.50;85.60;;;;;;4226253;27;20128;-60
2021/11/01 09:50:07;;;;;;;8.63;1.30;;;15.50;85.50;;;;;;4226330;27;20050;-60
2021/11/01 09:52:31;;;;;;;5.40;1.60;;;15.50;85.50;;;;;;4226233;27;20051;-60
2021/11/01 09:54:56;;;;;;;6.45;1.90;;;15.50;85.40;;;;;;4226151;27;20039;-61
2021/11/01 09:57:23;;;;;;;5.35;1.70;;;15.50;85.40;;;;;;4226106;27;20054;-59
2021/11/01 09:59:46;;;;;;;7.15;1.98;;;15.50;85.30;;;;;;4225599;27;20055;-62
2021/11/01 10:02:12;;;;;;;6.43;1.95;;;15.60;85.60;;;;;;4225932;27;20059;-62
2021/11/01 10:04:37;;;;;;;3.72;1.70;;;15.70;85.20;;;;;;4225709;27;20066;-63
2021/11/01 10:07:21;;;;;;;4.20;1.60;;;15.80;84.20;;;;;;4225608;27;20047;-62
2021/11/01 10:09:43;;;;;;;4.97;1.50;;;15.90;84.80;;;;;;4225709;27;20062;-62
2021/11/01 10:12:11;;;;;;;4.28;2.00;;;15.90;83.80;;;;;;4225265;27;20055;-62
2021/11/01 10:14:33;;;;;;;5.13;1.80;;;15.90;83.70;;;;;;4221123;27;20520;-62
2021/11/01 10:19:40;;;;;;;5.78;1.80;;;15.90;83.60;;;;;;4225654;27;20523;-63
2021/11/01 10:22:06;;;;;;;3.88;1.58;;;15.90;83.60;;;;;;4227815;27;20462;-63
2021/11/01 10:24:32;;;;;;;2.38;1.10;;;15.90;83.60;;;;;;4225518;27;20447;-63
2021/11/01 10:26:56;;;;;;;7.20;1.60;;;15.80;83.60;;;;;;4225911;27;20051;-63
2021/11/01 10:29:19;;;;;;;1.77;1.30;;;15.80;83.60;;;;;;4225704;27;20074;-63
2021/11/01 10:31:45;;;;;;;6.68;1.70;;;15.80;83.70;;;;;;4224762;27;20392;-62
2021/11/01 10:34:10;;;;;;;3.08;1.58;;;15.80;83.80;;;;;;4225471;27;20142;-62
2021/11/01 10:36:38;;;;;;;6.65;1.80;;;15.80;83.80;;;;;;4225029;27;20686;-63
2021/11/01 10:39:05;;;;;;;3.30;1.30;;;15.80;83.80;;;;;;4225607;27;20452;-63
2021/11/01 10:41:33;;;;;;;1.08;0.85;;;15.80;84.00;;;;;;4224559;27;20409;-62
2021/11/01 10:44:09;;;;;;;6.38;1.42;;;15.80;84.10;;;;;;4225198;27;20071;-63
2021/11/01 11:11:26;;;;;;;2.70;1.23;;;15.90;84.60;;;;;;4224555;27;20107;-61
2021/11/01 11:13:59;;;;;;;1.92;0.80;;;15.90;84.80;;;;;;4224743;27;20168;-60
2021/11/01 11:16:43;;;;;;;2.58;0.65;;;15.90;84.70;;;;;;4224067;27;20047;-61
2021/11/01 11:19:14;;;;;;;3.90;1.23;;;15.90;84.60;;;;;;4224954;27;20047;-61
2021/11/01 11:24:45;;;;;;;2.75;0.98;;;15.90;84.30;;;;;;4188628;28;20044;-60
2021/11/01 11:30:16;;;;;;;2.47;1.02;;;16.00;84.10;;;;;;4222006;27;20051;-61
2021/11/01 11:32:51;;;;;;;3.42;1.10;;;16.00;84.00;;;;;;4191209;28;20135;-60
2021/11/01 11:38:16;;;;;;;2.33;1.02;;;16.00;83.80;;;;;;4204592;27;20520;-61
2021/11/01 11:43:33;;;;;;;2.25;1.00;;;16.10;83.70;;;;;;4223137;27;20493;-61
2021/11/01 11:48:43;;;;;;;3.13;0.75;;;16.10;83.20;;;;;;4223744;27;20048;-61
2021/11/01 11:51:07;;;;;;;3.10;1.08;;;16.10;83.00;;;;;;4224554;27;20054;-61
2021/11/01 11:53:30;;;;;;;2.50;0.75;;;16.10;82.70;;;;;;4224405;27;20039;-62
2021/11/01 11:56:06;;;;;;;4.05;1.20;;;16.10;83.60;;;;;;4225980;28;20762;-62
2021/11/01 11:58:34;;;;;;;2.05;1.13;;;16.10;82.50;;;;;;4227924;28;20058;-62
2021/11/01 12:00:56;;;;;;;4.85;1.33;;;16.20;82.10;;;;;;4227869;27;20059;-61
2021/11/01 12:03:20;;;;;;;3.83;1.05;;;16.20;81.90;;;;;;4228031;27;20063;-62
2021/11/01 12:05:46;;;;;;;3.70;1.00;;;16.20;82.80;;;;;;4227557;27;20139;-62
2021/11/01 12:08:12;;;;;;;0.75;0.60;;;16.20;81.50;;;;;;4221778;28;20055;-62
2021/11/01 12:18:39;;;;;;;4.95;1.40;;;16.20;80.80;;;;;;4222433;27;20043;-59
2021/11/01 12:21:01;;;;;;;3.60;0.80;;;16.20;80.60;;;;;;4222836;27;20062;-62
2021/11/01 12:23:36;;;;;;;3.30;1.10;;;16.30;80.80;;;;;;4222234;27;20044;-62
2021/11/01 12:26:07;;;;;;;4.53;0.77;;;16.30;80.70;;;;;;4239171;27;20560;-61
2021/11/01 12:28:30;;;;;;;2.97;0.73;;;16.30;80.60;;;;;;4238742;27;20039;-62
2021/11/01 12:31:00;;;;;;;2.28;1.17;;;16.30;80.30;;;;;;4239303;27;20120;-63
2021/11/01 12:33:25;;;;;;;3.60;0.85;;;16.30;80.20;;;;;;4238709;27;20047;-63
2021/11/01 12:35:53;;;;;;;3.50;0.90;;;16.30;80.30;;;;;;4239020;27;20051;-63
2021/11/01 12:38:20;;;;;;;3.13;0.93;;;16.30;79.90;;;;;;4238551;27;20539;-62
2021/11/01 12:40:52;;;;;;;2.50;0.70;;;16.40;79.80;;;;;;4238947;27;20043;-64
2021/11/01 12:46:23;;;;;;;3.25;1.30;;;16.30;79.60;;;;;;4220343;27;20054;-63
2021/11/01 12:57:02;;;;;;;3.63;0.80;;;16.40;79.20;;;;;;4238267;27;20047;-62
2021/11/01 12:59:40;;;;;;;2.63;0.90;;;16.40;79.00;;;;;;4236852;27;20071;-62
2021/11/01 13:02:02;;;;;;;2.58;1.10;;;16.30;78.60;;;;;;4238223;27;20127;-62
2021/11/01 13:04:35;;;;;;;3.03;1.17;;;16.40;78.80;;;;;;4238755;27;20092;-62
2021/11/01 13:07:03;;;;;;;2.22;0.90;;;16.40;79.00;;;;;;4238088;27;20051;-62
2021/11/01 13:09:33;;;;;;;1.30;0.80;;;16.40;78.70;;;;;;4238612;27;20047;-61
2021/11/01 13:12:14;;;;;;;1.80;1.00;;;16.40;78.60;;;;;;4238091;27;20031;-61
2021/11/01 13:15:03;;;;;;;2.42;0.88;;;16.40;78.50;;;;;;4237799;27;20055;-61
2021/11/01 13:20:18;;;;;;;5.22;0.82;;;16.40;78.60;;;;;;4213810;28;20044;-61
2021/11/01 13:22:44;;;;;;;2.47;0.90;;;16.50;78.40;;;;;;4221057;28;20134;-61
2021/11/01 13:25:13;;;;;;;1.45;0.80;;;16.50;78.30;;;;;;4238250;27;20687;-61
2021/11/01 13:27:42;;;;;;;2.63;1.45;;;16.50;78.50;;;;;;4226637;28;20477;-61
2021/11/01 13:35:44;;;;;;;5.43;1.00;;;16.50;78.30;;;;;;4226413;28;20292;-61
2021/11/01 13:38:08;;;;;;;1.73;0.77;;;16.50;78.00;;;;;;4224842;28;20043;-63
2021/11/01 13:40:36;;;;;;;1.17;0.90;;;16.50;77.70;;;;;;4222906;28;20097;-62
2021/11/01 13:43:00;;;;;;;1.83;0.80;;;16.50;77.20;;;;;;4215486;28;20060;-62
2021/11/01 13:45:23;;;;;;;0.55;0.47;;;16.60;77.30;;;;;;4192990;28;20048;-61
2021/11/01 13:47:47;;;;;;;1.48;0.70;;;16.50;77.50;;;;;;4206999;28;20040;-62
2021/11/01 13:50:13;;;;;;;2.95;1.13;;;16.50;77.60;;;;;;4209228;28;20497;-62
2021/11/01 13:52:38;;;;;;;1.33;0.80;;;16.60;77.40;;;;;;4202321;28;20413;-61
2021/11/01 13:55:06;;;;;;;1.60;0.88;;;16.60;77.30;;;;;;4208864;28;20497;-61
2021/11/01 13:57:31;;;;;;;3.85;0.90;;;16.60;77.40;;;;;;4210019;28;20056;-63
2021/11/01 14:00:07;;;;;;;1.85;0.80;;;16.60;77.20;;;;;;4192921;28;20045;-62
2021/11/01 14:13:32;;;;;;;2.97;0.60;;;16.60;76.10;;;;;;4208919;28;20494;-62
2021/11/01 14:18:53;;;;;;;0.95;0.82;;;16.60;75.90;;;;;;4218587;28;20052;-62
2021/11/01 14:32:41;;;;;;;1.20;0.55;;;16.60;76.60;;;;;;4157073;28;20061;-62
2021/11/01 14:35:25;;;;;;;2.35;0.70;;;16.60;75.40;;;;;;4192306;28;20072;-62
2021/11/01 14:57:37;;;;;;;1.98;0.85;;;16.50;75.70;;;;;;4156552;28;20041;-62
2021/11/01 15:13:49;;;;;;;2.03;0.80;;;18.00;72.00;;;;;;4192955;28;20056;-61
2021/11/01 15:16:31;;;;;;;2.05;0.55;;;18.50;70.30;;;;;;4206515;28;20055;-62
2021/11/01 15:19:23;;;;;;;1.35;0.80;;;18.80;68.60;;;;;;4219276;28;20047;-62
2021/11/01 15:21:56;;;;;;;4.63;1.05;;;19.20;67.50;;;;;;4224735;28;20563;-62
2021/11/01 15:24:46;;;;;;;2.75;1.00;;;19.40;66.10;;;;;;4224417;28;20408;-62
2021/11/01 15:32:57;;;;;;;3.00;1.58;;;19.60;64.30;;;;;;4207484;28;20048;-62
2021/11/01 15:35:44;;;;;;;1.75;0.65;;;19.60;64.10;;;;;;4206172;28;20072;-62
2021/11/01 15:38:21;;;;;;;2.00;0.90;;;19.50;63.90;;;;;;4196945;28;20044;-62
2021/11/01 16:15:58;;;;;;;0.63;0.63;;;19.10;69.90;;;;;;4224230;28;20474;-61
2021/11/01 16:18:17;;;;;;;1.88;1.08;;;19.10;70.30;;;;;;4224170;28;20040;-59
2021/11/01 16:20:40;;;;;;;1.98;0.70;;;19.20;70.30;;;;;;4207045;28;20137;-61
2021/11/01 16:23:19;;;;;;;2.63;1.02;;;19.20;70.20;;;;;;4208048;28;20502;-61
2021/11/01 16:25:41;;;;;;;3.85;1.13;;;19.30;70.10;;;;;;4207684;28;20048;-61
2021/11/01 16:28:04;;;;;;;3.08;1.38;;;19.50;69.70;;;;;;4224268;28;20052;-61
2021/11/01 16:30:30;;;;;;;3.75;1.17;;;19.50;69.30;;;;;;4223794;28;20043;-61
2021/11/01 16:32:56;;;;;;;3.20;1.08;;;19.50;68.80;;;;;;4223968;28;20405;-61
2021/11/01 16:35:25;;;;;;;4.00;1.15;;;19.50;69.10;;;;;;4224372;28;20112;-61
2021/11/01 16:37:58;;;;;;;3.20;0.95;;;19.40;69.00;;;;;;4223637;28;20051;-61
2021/11/01 16:40:22;;;;;;;2.88;0.90;;;19.40;69.50;;;;;;4224152;28;20485;-61
2021/11/01 16:42:46;;;;;;;2.78;0.65;;;19.30;69.60;;;;;;4223385;28;20501;-61
2021/11/01 16:45:14;;;;;;;1.73;1.08;;;19.20;69.90;;;;;;4196324;28;20094;-61
2021/11/01 16:47:37;;;;;;;3.20;0.95;;;19.10;70.40;;;;;;4224005;28;20073;-60
2021/11/01 16:50:00;;;;;;;2.28;0.98;;;19.00;70.90;;;;;;4223828;28;20126;-61
2021/11/01 16:52:25;;;;;;;3.33;1.10;;;19.00;71.00;;;;;;4224104;28;20490;-61
2021/11/01 16:54:50;;;;;;;3.70;1.02;;;19.00;70.80;;;;;;4223935;28;20058;-61
2021/11/01 16:57:31;;;;;;;3.22;0.82;;;19.00;71.10;;;;;;4223803;28;20056;-61
2021/11/01 17:00:04;;;;;;;2.83;1.05;;;19.00;71.50;;;;;;4224190;28;20052;-60
2021/11/01 17:02:45;;;;;;;3.38;1.20;;;19.00;71.50;;;;;;4226480;28;20051;-61
2021/11/01 17:05:18;;;;;;;7.03;1.50;;;19.00;71.00;;;;;;4227048;28;20078;-61
2021/11/01 17:08:00;;;;;;;1.75;1.05;;;19.10;71.30;;;;;;4226709;28;20043;-61
2021/11/01 17:21:35;;;;;;;3.80;0.85;;;19.20;71.50;;;;;;4196496;28;20051;-60
2021/11/01 17:24:10;;;;;;;2.40;1.02;;;19.20;71.40;;;;;;4194621;28;20044;-61
2021/11/01 17:26:44;;;;;;;2.17;0.85;;;19.10;71.80;;;;;;4194752;28;20045;-61
2021/11/01 17:34:59;;;;;;;2.33;1.00;;;18.90;72.60;;;;;;4209888;28;20101;-61
2021/11/01 17:37:30;;;;;;;4.88;1.38;;;18.90;72.60;;;;;;4226332;28;20058;-61
2021/11/01 18:38:02;;;;;;;3.97;1.15;;;18.40;76.20;;;;;;4225200;28;20040;-61
2021/11/01 18:40:35;;;;;;;3.63;1.35;;;18.40;76.40;;;;;;4224746;28;20047;-60
2021/11/01 18:43:06;;;;;;;4.40;1.15;;;18.40;76.60;;;;;;4208567;28;20056;-60
2021/11/01 18:51:03;;;;;;;1.92;1.05;;;18.40;77.50;;;;;;4223607;28;20493;-60
2021/11/01 18:53:33;;;;;;;2.83;1.00;;;18.40;77.50;;;;;;4225422;28;20047;-61
2021/11/01 18:55:55;;;;;;;3.03;1.00;;;18.40;76.50;;;;;;4223982;28;20134;-61
2021/11/01 18:58:22;;;;;;;2.42;1.30;;;18.50;76.40;;;;;;4209443;28;20048;-61
2021/11/01 19:00:47;;;;;;;2.50;1.00;;;18.50;76.10;;;;;;4209174;28;20048;-61
2021/11/01 19:03:12;;;;;;;3.30;1.02;;;18.50;75.90;;;;;;4224511;28;20493;-60
2021/11/01 19:05:40;;;;;;;2.65;1.05;;;18.50;75.70;;;;;;4225387;28;20059;-61
2021/11/01 19:08:13;;;;;;;3.67;1.42;;;18.50;76.10;;;;;;4224902;28;20689;-60
2021/11/01 20:06:04;;;;;;;4.80;1.98;;;17.40;81.30;;;;;;4224276;28;20079;-61
2021/11/01 20:11:31;;;;;;;3.08;2.10;;;17.30;81.40;;;;;;4158736;28;20077;-60
2021/11/01 20:14:12;;;;;;;2.00;1.70;;;17.20;81.60;;;;;;4207087;28;20048;-60
2021/11/01 20:17:16;;;;;;;1.58;0.98;;;17.20;81.60;;;;;;4220304;28;20050;-61
2021/11/01 21:24:35;;;;;;;0.88;0.77;;;16.70;82.40;;;;;;4213453;28;20408;-61
2021/11/01 21:27:00;;;;;;;2.28;1.05;;;16.70;82.10;;;;;;4223399;28;20071;-61
2021/11/01 21:29:22;;;;;;;1.83;1.30;;;16.70;82.40;;;;;;4223587;28;20047;-61
2021/11/01 21:31:44;;;;;;;2.30;1.02;;;16.70;82.00;;;;;;4222010;28;20511;-60
2021/11/01 21:34:12;;;;;;;1.65;0.88;;;16.60;82.00;;;;;;4223831;28;20520;-61
2021/11/01 21:36:35;;;;;;;1.52;1.00;;;16.60;81.80;;;;;;4220546;28;20051;-61
2021/11/01 21:38:58;;;;;;;1.65;0.90;;;16.70;82.00;;;;;;4207149;28;20044;-61